createdAt,value
2018-04-01T00:01:07.385Z,2.10
2018-04-01T00:03:34.992Z,2.10
2018-04-01T00:06:02.675Z,2.93
2018-04-01T00:08:30.288Z,2.40
2018-04-01T00:10:57.893Z,2.20
2018-04-01T00:13:25.600Z,2.20
2018-04-01T00:15:53.228Z,2.17
2018-04-01T00:18:20.796Z,2.63
2018-04-01T00:20:48.480Z,2.43
2018-04-01T00:23:16.041Z,2.57
2018-04-01T00:25:43.633Z,2.90
2018-04-01T00:28:11.234Z,2.17
2018-04-01T00:30:38.792Z,2.47
2018-04-01T00:33:06.505Z,3.50
2018-04-01T00:35:34.164Z,2.53
2018-04-01T00:38:01.784Z,3.33
2018-04-01T00:40:29.505Z,2.73
2018-04-01T00:42:57.121Z,1.93
2018-04-01T00:45:24.698Z,2.53
2018-04-01T00:47:52.340Z,2.27
2018-04-01T00:50:19.920Z,2.73
2018-04-01T00:52:47.529Z,1.97
2018-04-01T00:55:15.087Z,2.50
2018-04-01T00:57:42.696Z,2.13
2018-04-01T01:00:10.305Z,2.03
2018-04-01T01:02:37.864Z,2.20
2018-04-01T01:05:05.521Z,2.37
2018-04-01T01:07:33.133Z,2.20
2018-04-01T01:10:00.772Z,2.77
2018-04-01T01:12:28.404Z,2.47
2018-04-01T01:14:55.958Z,2.83
2018-04-01T01:17:23.542Z,2.70
2018-04-01T01:19:51.139Z,2.43
2018-04-01T01:22:18.758Z,2.43
2018-04-01T01:24:46.504Z,2.53
2018-04-01T01:27:14.072Z,2.27
2018-04-01T01:29:41.652Z,2.50
2018-04-01T01:32:09.248Z,3.63
2018-04-01T01:34:36.944Z,3.33
2018-04-01T01:37:04.503Z,3.87
2018-04-01T01:39:32.113Z,3.20
2018-04-01T01:41:59.674Z,3.63
2018-04-01T01:44:27.286Z,3.00
2018-04-01T01:46:54.916Z,2.73
2018-04-01T01:49:22.601Z,3.70
2018-04-01T01:51:50.209Z,3.10
2018-04-01T01:54:17.892Z,2.90
2018-04-01T01:56:45.510Z,2.90
2018-04-01T01:59:13.080Z,2.80
2018-04-01T02:01:40.682Z,2.70
2018-04-01T02:04:08.257Z,2.47
2018-04-01T02:06:35.928Z,2.53
2018-04-01T02:09:03.500Z,3.83
2018-04-01T02:11:31.113Z,3.23
2018-04-01T02:13:58.808Z,2.80
2018-04-01T02:16:26.392Z,3.20
2018-04-01T02:18:53.969Z,2.70
2018-04-01T02:21:21.524Z,3.30
2018-04-01T02:23:49.108Z,3.17
2018-04-01T02:26:16.715Z,3.60
2018-04-01T02:28:44.321Z,2.70
2018-04-01T02:31:11.912Z,3.23
2018-04-01T02:33:39.487Z,3.10
2018-04-01T02:36:07.128Z,3.20
2018-04-01T02:38:34.715Z,3.00
2018-04-01T02:41:02.291Z,3.20
2018-04-01T02:43:29.904Z,4.13
2018-04-01T02:45:57.539Z,4.00
2018-04-01T02:48:25.111Z,4.03
2018-04-01T02:50:52.805Z,3.47
2018-04-01T02:53:20.431Z,4.30
2018-04-01T02:55:48.005Z,4.90
2018-04-01T02:58:15.686Z,3.93
2018-04-01T03:00:43.312Z,4.97
2018-04-01T03:03:10.904Z,4.17
2018-04-01T03:05:38.468Z,5.27
2018-04-01T03:08:06.065Z,5.37
2018-04-01T03:10:33.717Z,4.40
2018-04-01T03:13:01.334Z,5.67
2018-04-01T03:15:28.899Z,4.33
2018-04-01T03:17:56.510Z,5.13
2018-04-01T03:20:24.078Z,5.30
2018-04-01T03:22:51.703Z,5.30
2018-04-01T03:25:19.295Z,5.67
2018-04-01T03:27:47.003Z,5.37
2018-04-01T03:30:14.708Z,5.63
2018-04-01T03:32:42.333Z,5.93
2018-04-01T03:35:09.945Z,5.53
2018-04-01T03:37:37.558Z,7.40
2018-04-01T03:40:05.124Z,6.90
2018-04-01T03:42:32.731Z,9.17
2018-04-01T03:45:00.339Z,6.97
2018-04-01T03:47:27.960Z,2.27
2018-04-01T03:49:55.528Z,1.70
2018-04-01T03:52:23.248Z,1.80
2018-04-01T03:54:50.848Z,1.33
2018-04-01T03:57:18.427Z,1.20
2018-04-01T03:59:45.987Z,1.10
2018-04-01T04:02:13.638Z,1.40
2018-04-01T04:04:41.335Z,0.90
2018-04-01T04:07:08.961Z,1.00
2018-04-01T04:09:36.561Z,0.70
2018-04-01T04:12:04.173Z,0.67
2018-04-01T04:14:31.729Z,1.03
2018-04-01T04:16:59.307Z,1.20
2018-04-01T04:19:26.905Z,1.17
2018-04-01T04:21:54.493Z,1.03
2018-04-01T04:24:22.113Z,1.30
2018-04-01T04:26:49.724Z,0.90
2018-04-01T04:29:17.352Z,0.43
2018-04-01T04:31:44.909Z,0.70
2018-04-01T04:34:12.506Z,0.77
2018-04-01T04:36:40.110Z,0.80
2018-04-01T04:39:07.720Z,0.57
2018-04-01T04:41:35.403Z,0.67
2018-04-01T04:44:02.977Z,0.93
2018-04-01T04:46:30.580Z,0.77
2018-04-01T04:48:58.191Z,0.67
2018-04-01T04:51:25.815Z,0.53
2018-04-01T04:53:53.372Z,0.73
2018-04-01T04:56:20.969Z,0.70
2018-04-01T04:58:53.520Z,0.80
2018-04-01T05:01:21.152Z,0.70
2018-04-01T05:03:48.712Z,0.93
2018-04-01T05:06:16.317Z,1.00
2018-04-01T05:08:43.919Z,1.10
2018-04-01T05:11:11.526Z,1.20
2018-04-01T05:13:39.203Z,1.10
2018-04-01T05:16:06.797Z,0.97
2018-04-01T05:18:34.483Z,1.20
2018-04-01T05:21:02.064Z,0.87
2018-04-01T05:23:29.680Z,0.80
2018-04-01T05:25:57.353Z,0.80
2018-04-01T05:28:25.430Z,0.70
2018-04-01T05:30:52.990Z,1.00
2018-04-01T05:33:20.597Z,1.60
2018-04-01T05:35:48.256Z,0.70
2018-04-01T05:38:15.817Z,0.80
2018-04-01T05:40:43.532Z,1.33
2018-04-01T05:43:11.164Z,1.20
2018-04-01T05:45:38.729Z,0.80
2018-04-01T05:48:06.468Z,1.43
2018-04-01T05:50:34.033Z,1.53
2018-04-01T05:53:01.622Z,1.00
2018-04-01T05:55:29.277Z,1.07
2018-04-01T05:57:56.850Z,1.10
2018-04-01T06:00:24.484Z,1.60
2018-04-01T06:02:52.177Z,1.37
2018-04-01T06:05:19.789Z,0.80
2018-04-01T06:07:47.360Z,1.00
2018-04-01T06:10:15.002Z,1.40
2018-04-01T06:12:42.683Z,1.00
2018-04-01T06:15:10.377Z,1.43
2018-04-01T06:17:37.978Z,1.07
2018-04-01T06:20:05.535Z,1.20
2018-04-01T06:22:33.275Z,1.17
2018-04-01T06:25:00.882Z,1.40
2018-04-01T06:27:28.506Z,1.10
2018-04-01T06:29:56.075Z,1.03
2018-04-01T06:32:23.821Z,1.00
2018-04-01T06:34:51.430Z,1.10
2018-04-01T06:37:18.995Z,1.00
2018-04-01T06:39:46.664Z,0.80
2018-04-01T06:42:14.264Z,1.00
2018-04-01T06:44:41.950Z,0.93
2018-04-01T06:47:09.589Z,1.20
2018-04-01T06:49:37.212Z,1.50
2018-04-01T06:52:04.799Z,1.70
2018-04-01T06:54:32.412Z,1.40
2018-04-01T06:57:00.035Z,1.83
2018-04-01T06:59:27.637Z,1.20
2018-04-01T07:01:55.197Z,1.07
2018-04-01T07:04:22.764Z,1.03
2018-04-01T07:06:50.395Z,1.20
2018-04-01T07:09:17.976Z,1.10
2018-04-01T07:11:45.544Z,1.57
2018-04-01T07:14:13.152Z,2.00
2018-04-01T07:16:40.735Z,1.07
2018-04-01T07:19:08.327Z,0.83
2018-04-01T07:21:35.962Z,1.40
2018-04-01T07:24:03.552Z,1.27
2018-04-01T07:26:31.115Z,1.20
2018-04-01T07:28:58.744Z,1.10
2018-04-01T07:31:26.474Z,1.10
2018-04-01T07:33:54.048Z,1.57
2018-04-01T07:36:21.720Z,1.30
2018-04-01T07:38:49.310Z,1.10
2018-04-01T07:41:16.913Z,1.43
2018-04-01T07:43:44.518Z,1.33
2018-04-01T07:46:12.152Z,1.20
2018-04-01T07:48:39.778Z,1.87
2018-04-01T07:51:07.782Z,1.30
2018-04-01T07:53:35.405Z,1.33
2018-04-01T07:56:03.014Z,1.30
2018-04-01T07:58:30.621Z,1.30
2018-04-01T08:00:58.241Z,1.00
2018-04-01T08:03:25.807Z,1.43
2018-04-01T08:05:53.468Z,1.67
2018-04-01T08:08:21.116Z,2.50
2018-04-01T08:10:48.744Z,1.70
2018-04-01T08:13:16.354Z,1.63
2018-04-01T08:15:43.956Z,1.37
2018-04-01T08:18:11.537Z,1.90
2018-04-01T08:20:39.180Z,1.77
2018-04-01T08:23:06.816Z,1.50
2018-04-01T08:25:34.378Z,1.63
2018-04-01T08:28:02.040Z,1.33
2018-04-01T08:30:29.656Z,1.40
2018-04-01T08:32:57.224Z,1.27
2018-04-01T08:35:24.919Z,1.87
2018-04-01T08:37:52.508Z,1.40
2018-04-01T08:40:20.170Z,1.80
2018-04-01T08:42:47.738Z,1.43
2018-04-01T08:45:15.349Z,1.10
2018-04-01T08:47:42.986Z,1.03
2018-04-01T08:50:10.567Z,1.30
2018-04-01T08:52:38.194Z,1.30
2018-04-01T08:55:05.821Z,2.10
2018-04-01T08:57:33.401Z,1.30
2018-04-01T09:00:00.988Z,1.53
2018-04-01T09:02:28.603Z,1.20
2018-04-01T09:04:56.232Z,1.70
2018-04-01T09:07:23.808Z,2.20
2018-04-01T09:09:51.495Z,1.47
2018-04-01T09:12:19.220Z,1.47
2018-04-01T09:14:46.814Z,1.80
2018-04-01T09:17:14.420Z,1.63
2018-04-01T09:19:41.989Z,1.83
2018-04-01T09:22:09.582Z,1.37
2018-04-01T09:24:37.217Z,1.60
2018-04-01T09:27:04.848Z,1.40
2018-04-01T09:29:32.484Z,1.10
2018-04-01T09:32:00.112Z,1.23
2018-04-01T09:34:27.786Z,1.87
2018-04-01T09:36:55.407Z,1.23
2018-04-01T09:39:23.093Z,2.27
2018-04-01T09:41:50.693Z,1.80
2018-04-01T09:44:18.408Z,1.20
2018-04-01T09:46:45.973Z,2.43
2018-04-01T09:49:14.380Z,1.70
2018-04-01T09:51:41.957Z,2.50
2018-04-01T09:54:09.685Z,3.13
2018-04-01T09:56:37.248Z,2.07
2018-04-01T09:59:04.848Z,2.47
2018-04-01T10:01:32.959Z,2.10
2018-04-01T10:04:01.131Z,1.73
2018-04-01T10:06:29.336Z,2.33
2018-04-01T10:08:57.945Z,1.47
2018-04-01T10:11:26.324Z,2.93
2018-04-01T10:13:54.776Z,2.00
2018-04-01T10:16:23.189Z,1.60
2018-04-01T10:18:51.703Z,1.27
2018-04-01T10:21:20.344Z,2.70
2018-04-01T10:23:48.784Z,1.70
2018-04-01T10:26:17.181Z,1.80
2018-04-01T10:28:45.710Z,1.87
2018-04-01T10:31:14.158Z,1.73
2018-04-01T10:33:42.590Z,1.87
2018-04-01T10:36:10.989Z,1.83
2018-04-01T10:38:39.385Z,1.40
2018-04-01T10:41:07.852Z,1.37
2018-04-01T10:43:36.289Z,1.40
2018-04-01T10:46:04.748Z,1.80
2018-04-01T10:48:33.143Z,1.30
2018-04-01T10:51:01.584Z,1.77
2018-04-01T10:53:30.020Z,1.80
2018-04-01T10:55:57.915Z,1.60
2018-04-01T10:58:26.491Z,1.70
2018-04-01T11:00:54.105Z,1.80
2018-04-01T11:03:21.709Z,2.13
2018-04-01T11:05:49.300Z,2.07
2018-04-01T11:08:16.868Z,2.00
2018-04-01T11:10:44.432Z,1.60
2018-04-01T11:13:12.104Z,1.43
2018-04-01T11:15:39.679Z,1.80
2018-04-01T11:18:07.343Z,1.67
2018-04-01T11:20:34.961Z,0.97
2018-04-01T11:23:02.541Z,1.17
2018-04-01T11:25:30.232Z,0.70
2018-04-01T11:27:57.816Z,1.20
2018-04-01T11:30:25.440Z,1.13
2018-04-01T11:32:52.996Z,1.33
2018-04-01T11:35:20.601Z,1.40
2018-04-01T11:37:48.210Z,1.40
2018-04-01T11:40:15.816Z,1.10
2018-04-01T11:42:43.373Z,2.67
2018-04-01T11:45:10.972Z,1.70
2018-04-01T11:47:38.794Z,2.10
2018-04-01T11:50:06.372Z,1.87
2018-04-01T11:52:33.937Z,2.03
2018-04-01T11:55:01.552Z,1.90
2018-04-01T11:57:29.229Z,1.30
2018-04-01T11:59:56.866Z,1.13
2018-04-01T12:02:24.459Z,2.00
2018-04-01T12:04:52.067Z,1.17
2018-04-01T12:07:19.748Z,1.20
2018-04-01T12:09:47.392Z,1.27
2018-04-01T12:12:14.952Z,1.30
2018-04-01T12:14:42.573Z,1.30
2018-04-01T12:17:10.137Z,1.20
2018-04-01T12:19:37.707Z,2.63
2018-04-01T12:22:05.323Z,2.53
2018-04-01T12:24:32.937Z,1.60
2018-04-01T12:27:00.562Z,2.20
2018-04-01T12:29:28.165Z,2.07
2018-04-01T12:31:55.879Z,2.17
2018-04-01T12:34:23.549Z,2.40
2018-04-01T12:36:51.108Z,2.40
2018-04-01T12:39:18.724Z,2.53
2018-04-01T12:41:46.293Z,2.30
2018-04-01T12:44:13.983Z,1.97
2018-04-01T12:46:41.591Z,1.50
2018-04-01T12:49:09.203Z,1.20
2018-04-01T12:51:36.848Z,1.50
2018-04-01T12:54:04.416Z,1.20
2018-04-01T12:56:32.030Z,1.90
2018-04-01T12:58:59.756Z,1.50
2018-04-01T13:01:27.373Z,1.63
2018-04-01T13:03:54.956Z,2.13
2018-04-01T13:06:22.576Z,1.10
2018-04-01T13:08:50.172Z,1.90
2018-04-01T13:11:17.762Z,1.73
2018-04-01T13:13:45.360Z,1.30
2018-04-01T13:16:12.974Z,1.67
2018-04-01T13:18:40.605Z,1.40
2018-04-01T13:21:08.182Z,1.90
2018-04-01T13:23:35.830Z,1.40
2018-04-01T13:26:03.445Z,1.10
2018-04-01T13:28:31.036Z,1.20
2018-04-01T13:30:58.601Z,0.77
2018-04-01T13:33:26.218Z,1.30
2018-04-01T13:35:53.836Z,1.27
2018-04-01T13:38:21.407Z,1.37
2018-04-01T13:40:49.015Z,1.30
2018-04-01T13:43:16.616Z,1.70
2018-04-01T13:45:44.192Z,1.40
2018-04-01T13:48:11.910Z,2.07
2018-04-01T13:50:39.481Z,1.03
2018-04-01T13:53:07.055Z,1.30
2018-04-01T13:55:34.684Z,1.20
2018-04-01T13:58:02.255Z,1.83
2018-04-01T14:00:29.824Z,1.20
2018-04-01T14:02:57.408Z,1.83
2018-04-01T14:05:25.013Z,1.30
2018-04-01T14:07:52.576Z,0.90
2018-04-01T14:10:20.164Z,0.97
2018-04-01T14:12:47.718Z,0.77
2018-04-01T14:15:15.326Z,0.90
2018-04-01T14:17:42.894Z,1.20
2018-04-01T14:20:10.465Z,1.13
2018-04-01T14:22:38.128Z,1.10
2018-04-01T14:25:05.692Z,1.57
2018-04-01T14:27:33.296Z,1.20
2018-04-01T14:30:00.938Z,1.10
2018-04-01T14:32:28.683Z,1.27
2018-04-01T14:34:56.611Z,1.23
2018-04-01T14:37:24.313Z,1.20
2018-04-01T14:39:51.894Z,1.10
2018-04-01T14:42:19.488Z,1.10
2018-04-01T14:44:47.118Z,0.87
2018-04-01T14:47:14.674Z,1.03
2018-04-01T14:49:42.241Z,1.20
2018-04-01T14:52:09.938Z,5.40
2018-04-01T14:54:37.538Z,3.77
2018-04-01T14:57:05.254Z,3.00
2018-04-01T14:59:32.917Z,2.77
2018-04-01T15:02:01.022Z,3.97
2018-04-01T15:04:28.635Z,2.47
2018-04-01T15:06:56.250Z,2.00
2018-04-01T15:09:23.835Z,5.07
2018-04-01T15:11:51.448Z,3.33
2018-04-01T15:14:19.104Z,3.13
2018-04-01T15:16:47.650Z,3.27
2018-04-01T15:19:15.346Z,2.60
2018-04-01T15:21:42.960Z,2.20
2018-04-01T15:24:10.556Z,2.67
2018-04-01T15:26:38.117Z,1.77
2018-04-01T15:29:05.724Z,2.47
2018-04-01T15:31:33.328Z,3.17
2018-04-01T15:34:00.883Z,2.13
2018-04-01T15:36:28.513Z,3.67
2018-04-01T15:38:56.072Z,4.70
2018-04-01T15:41:23.755Z,2.57
2018-04-01T15:43:51.345Z,2.10
2018-04-01T15:46:18.908Z,2.00
2018-04-01T15:48:46.514Z,2.47
2018-04-01T15:51:14.123Z,2.50
2018-04-01T15:53:41.745Z,2.03
2018-04-01T15:56:09.309Z,2.40
2018-04-01T15:58:36.968Z,2.70
2018-04-01T16:01:04.627Z,2.80
2018-04-01T16:03:32.237Z,3.13
2018-04-01T16:05:59.832Z,1.83
2018-04-01T16:08:27.556Z,2.40
2018-04-01T16:10:55.152Z,2.00
2018-04-01T16:13:22.900Z,2.13
2018-04-01T16:15:50.488Z,3.63
2018-04-01T16:18:18.110Z,2.80
2018-04-01T16:20:45.695Z,2.97
2018-04-01T16:23:13.286Z,2.50
2018-04-01T16:25:40.887Z,3.03
2018-04-01T16:28:08.448Z,2.00
2018-04-01T16:30:36.097Z,3.40
2018-04-01T16:33:04.095Z,4.33
2018-04-01T16:35:31.692Z,3.20
2018-04-01T16:37:59.258Z,2.93
2018-04-01T16:40:26.817Z,5.73
2018-04-01T16:42:54.424Z,3.43
2018-04-01T16:45:22.053Z,2.50
2018-04-01T16:47:49.741Z,4.90
2018-04-01T16:50:17.304Z,2.57
2018-04-01T16:52:44.893Z,5.50
2018-04-01T16:55:12.486Z,3.90
2018-04-01T16:57:40.046Z,4.40
2018-04-01T17:00:07.664Z,2.83
2018-04-01T17:02:35.228Z,3.13
2018-04-01T17:05:02.784Z,2.70
2018-04-01T17:07:30.402Z,3.53
2018-04-01T17:09:57.988Z,3.10
2018-04-01T17:12:25.608Z,2.57
2018-04-01T17:14:53.316Z,2.47
2018-04-01T17:17:20.919Z,1.50
2018-04-01T17:19:48.533Z,1.43
2018-04-01T17:22:16.088Z,2.80
2018-04-01T17:24:43.699Z,2.27
2018-04-01T17:27:11.343Z,2.37
2018-04-01T17:29:38.905Z,2.50
2018-04-01T17:32:06.504Z,2.17
2018-04-01T17:34:34.073Z,2.20
2018-04-01T17:37:01.690Z,2.10
2018-04-01T17:39:29.253Z,2.47
2018-04-01T17:41:56.856Z,2.00
2018-04-01T17:44:24.409Z,2.00
2018-04-01T17:46:52.032Z,2.10
2018-04-01T17:49:19.640Z,2.00
2018-04-01T17:51:47.247Z,3.30
2018-04-01T17:54:14.804Z,2.60
2018-04-01T17:56:42.430Z,2.67
2018-04-01T17:59:10.016Z,3.00
2018-04-01T18:01:37.575Z,2.30
2018-04-01T18:04:05.214Z,1.90
2018-04-01T18:06:32.804Z,2.10
2018-04-01T18:09:00.366Z,3.13
2018-04-01T18:11:28.120Z,3.30
2018-04-01T18:13:55.692Z,3.27
2018-04-01T18:16:23.285Z,4.97
2018-04-01T18:18:50.896Z,4.30
2018-04-01T18:21:18.520Z,4.03
2018-04-01T18:23:46.125Z,4.90
2018-04-01T18:26:13.685Z,4.30
2018-04-01T18:28:41.303Z,3.67
2018-04-01T18:31:08.881Z,4.40
2018-04-01T18:33:36.449Z,4.07
2018-04-01T18:36:04.061Z,4.47
2018-04-01T18:38:31.644Z,3.93
2018-04-01T18:40:59.266Z,3.70
2018-04-01T18:43:26.856Z,3.27
2018-04-01T18:45:54.476Z,2.97
2018-04-01T18:48:22.089Z,2.83
2018-04-01T18:50:49.641Z,3.67
2018-04-01T18:53:17.233Z,3.67
2018-04-01T18:55:44.820Z,3.37
2018-04-01T18:58:12.641Z,6.70
2018-04-01T19:00:40.223Z,4.43
2018-04-01T19:03:07.786Z,3.90
2018-04-01T19:05:35.399Z,5.50
2018-04-01T19:08:03.025Z,4.73
2018-04-01T19:10:30.652Z,3.53
2018-04-01T19:12:58.214Z,4.80
2018-04-01T19:15:25.848Z,4.10
2018-04-01T19:17:54.005Z,3.97
2018-04-01T19:20:22.399Z,4.33
2018-04-01T19:22:50.832Z,4.10
2018-04-01T19:25:19.335Z,5.47
2018-04-01T19:27:47.726Z,4.00
2018-04-01T19:30:16.223Z,3.73
2018-04-01T19:32:44.656Z,3.47
2018-04-01T19:35:13.159Z,3.77
2018-04-01T19:37:41.538Z,8.00
2018-04-01T19:40:10.045Z,7.50
2018-04-01T19:42:38.440Z,3.50
2018-04-01T19:45:06.868Z,3.00
2018-04-01T19:47:35.338Z,3.40
2018-04-01T19:50:03.817Z,2.80
2018-04-01T19:52:32.273Z,3.70
2018-04-01T19:55:00.700Z,3.20
2018-04-01T19:57:29.154Z,2.80
2018-04-01T19:59:57.608Z,5.97
2018-04-01T20:02:26.000Z,3.97
2018-04-01T20:04:54.372Z,3.73
2018-04-01T20:07:22.820Z,3.40
2018-04-01T20:09:51.213Z,4.53
2018-04-01T20:12:19.665Z,5.87
2018-04-01T20:14:48.061Z,3.40
2018-04-01T20:17:16.456Z,3.30
2018-04-01T20:19:44.887Z,2.60
2018-04-01T20:22:13.301Z,3.20
2018-04-01T20:24:41.773Z,3.57
2018-04-01T20:27:10.222Z,3.20
2018-04-01T20:29:38.624Z,3.50
2018-04-01T20:32:07.070Z,3.70
2018-04-01T20:34:35.522Z,3.63
2018-04-01T20:37:03.936Z,2.97
2018-04-01T20:39:32.345Z,3.63
2018-04-01T20:42:00.784Z,3.40
2018-04-01T20:44:29.169Z,4.13
2018-04-01T20:46:57.626Z,3.80
2018-04-01T20:49:26.048Z,3.37
2018-04-01T20:51:54.590Z,3.50
2018-04-01T20:54:22.973Z,4.07
2018-04-01T20:56:51.365Z,5.03
2018-04-01T20:59:19.815Z,3.90
2018-04-01T21:01:48.232Z,3.97
2018-04-01T21:04:16.683Z,3.50
2018-04-01T21:06:45.151Z,3.50
2018-04-01T21:09:13.626Z,3.90
2018-04-01T21:11:42.038Z,3.67
2018-04-01T21:14:10.420Z,3.73
2018-04-01T21:16:38.869Z,3.77
2018-04-01T21:19:07.273Z,3.97
2018-04-01T21:21:35.754Z,3.90
2018-04-01T21:24:04.151Z,3.37
2018-04-01T21:26:32.650Z,3.77
2018-04-01T21:29:01.100Z,2.93
2018-04-01T21:31:29.534Z,3.20
2018-04-01T21:33:57.945Z,3.80
2018-04-01T21:36:26.377Z,3.27
2018-04-01T21:38:54.824Z,4.20
2018-04-01T21:41:23.213Z,3.77
2018-04-01T21:43:51.628Z,3.60
2018-04-01T21:46:20.043Z,3.20
2018-04-01T21:48:48.490Z,3.43
2018-04-01T21:51:16.882Z,3.50
2018-04-01T21:53:45.316Z,3.80
2018-04-01T21:56:13.717Z,2.90
2018-04-01T21:58:42.122Z,3.23
2018-04-01T22:01:10.590Z,3.70
2018-04-01T22:03:39.009Z,3.77
2018-04-01T22:06:07.464Z,2.80
2018-04-01T22:08:35.854Z,3.30
2018-04-01T22:11:04.278Z,3.30
2018-04-01T22:13:32.706Z,3.30
2018-04-01T22:16:01.104Z,3.20
2018-04-01T22:18:29.545Z,3.33
2018-04-01T22:20:57.937Z,2.93
2018-04-01T22:23:26.359Z,3.00
2018-04-01T22:25:54.826Z,3.30
2018-04-01T22:28:23.230Z,3.70
2018-04-01T22:30:51.630Z,3.60
2018-04-01T22:33:20.038Z,3.43
2018-04-01T22:35:48.485Z,3.57
2018-04-01T22:38:17.013Z,4.10
2018-04-01T22:40:45.462Z,4.23
2018-04-01T22:43:13.929Z,3.40
2018-04-01T22:45:42.346Z,3.27
2018-04-01T22:48:10.777Z,3.40
2018-04-01T22:50:39.175Z,4.00
2018-04-01T22:53:07.604Z,3.63
2018-04-01T22:55:36.069Z,3.23
2018-04-01T22:58:04.473Z,3.07
2018-04-01T23:00:32.949Z,3.20
2018-04-01T23:03:07.140Z,2.90
2018-04-01T23:05:35.579Z,3.03
2018-04-01T23:08:04.013Z,3.30
2018-04-01T23:10:32.388Z,3.63
2018-04-01T23:13:00.826Z,3.40
2018-04-01T23:15:29.228Z,2.97
2018-04-01T23:17:57.619Z,3.27
2018-04-01T23:20:26.017Z,3.00
2018-04-01T23:22:54.445Z,2.50
2018-04-01T23:25:22.876Z,2.97
2018-04-01T23:27:51.321Z,2.40
2018-04-01T23:30:19.754Z,2.70
2018-04-01T23:32:48.211Z,3.03
2018-04-01T23:35:16.601Z,2.60
2018-04-01T23:37:45.065Z,2.80
2018-04-01T23:40:13.453Z,2.17
2018-04-01T23:42:41.858Z,2.90
2018-04-01T23:45:10.290Z,2.70
2018-04-01T23:47:38.928Z,2.83
2018-04-01T23:50:07.322Z,2.53
2018-04-01T23:52:35.800Z,2.67
2018-04-01T23:55:04.227Z,2.60
2018-04-01T23:57:32.628Z,2.70
